createdAt,value
2018-08-11T00:00:14.035Z,17.07
2018-08-11T00:01:19.405Z,17.12
2018-08-11T00:02:24.976Z,17.26
2018-08-11T00:03:30.544Z,17.30
2018-08-11T00:04:36.236Z,17.48
2018-08-11T00:05:42.280Z,17.59
2018-08-11T00:06:47.673Z,17.50
2018-08-11T00:07:53.234Z,17.28
2018-08-11T00:08:58.957Z,17.27
2018-08-11T00:10:04.664Z,17.20
2018-08-11T00:11:09.997Z,17.21
2018-08-11T00:12:16.129Z,17.11
2018-08-11T00:13:22.063Z,17.03
2018-08-11T00:14:28.467Z,17.00
2018-08-11T00:15:33.761Z,17.00
2018-08-11T00:16:40.315Z,17.02
2018-08-11T00:17:45.980Z,17.03
2018-08-11T00:18:51.345Z,16.96
2018-08-11T00:19:57.097Z,16.94
2018-08-11T00:21:03.591Z,16.93
2018-08-11T00:22:09.286Z,16.97
2018-08-11T00:23:15.654Z,16.95
2018-08-11T00:24:21.628Z,16.97
2018-08-11T00:25:27.275Z,16.93
2018-08-11T00:26:33.559Z,16.95
2018-08-11T00:27:39.214Z,17.04
2018-08-11T00:28:45.536Z,17.12
2018-08-11T00:29:51.830Z,17.21
2018-08-11T00:30:59.296Z,17.24
2018-08-11T00:32:05.270Z,17.46
2018-08-11T00:33:11.534Z,17.36
2018-08-11T00:34:18.328Z,17.24
2018-08-11T00:35:24.603Z,17.21
2018-08-11T00:36:30.646Z,17.12
2018-08-11T00:37:36.499Z,16.98
2018-08-11T00:38:42.921Z,16.94
2018-08-11T00:39:49.204Z,16.90
2018-08-11T00:40:55.177Z,16.93
2018-08-11T00:42:01.086Z,17.04
2018-08-11T00:43:06.732Z,17.30
2018-08-11T00:44:12.759Z,17.28
2018-08-11T00:45:18.471Z,17.04
2018-08-11T00:46:24.116Z,17.04
2018-08-11T00:47:30.202Z,17.01
2018-08-11T00:48:36.263Z,17.05
2018-08-11T00:49:42.200Z,17.03
2018-08-11T00:50:48.536Z,17.01
2018-08-11T00:51:54.157Z,16.95
2018-08-11T00:53:00.246Z,16.87
2018-08-11T00:54:06.204Z,16.87
2018-08-11T00:55:12.203Z,16.77
2018-08-11T00:56:18.566Z,16.85
2018-08-11T00:57:24.980Z,16.79
2018-08-11T00:58:31.276Z,16.80
2018-08-11T00:59:37.961Z,16.80
2018-08-11T01:00:44.224Z,16.81
2018-08-11T01:01:49.107Z,16.84
2018-08-11T01:02:55.432Z,16.80
2018-08-11T01:04:01.361Z,16.86
2018-08-11T01:05:06.936Z,16.89
2018-08-11T01:06:13.254Z,16.96
2018-08-11T01:07:19.586Z,17.01
2018-08-11T01:08:25.874Z,16.98
2018-08-11T01:09:31.812Z,16.95
2018-08-11T01:10:37.324Z,16.96
2018-08-11T01:11:43.564Z,17.02
2018-08-11T01:12:50.946Z,17.01
2018-08-11T01:13:57.331Z,17.04
2018-08-11T01:15:02.965Z,16.81
2018-08-11T01:16:08.880Z,16.57
2018-08-11T01:17:14.781Z,16.57
2018-08-11T01:18:21.064Z,16.53
2018-08-11T01:19:27.477Z,16.53
2018-08-11T01:20:33.994Z,16.54
2018-08-11T01:21:39.557Z,16.65
2018-08-11T01:22:45.568Z,16.77
2018-08-11T01:23:51.965Z,16.97
2018-08-11T01:24:58.406Z,16.94
2018-08-11T01:26:04.681Z,16.99
2018-08-11T01:27:10.475Z,17.02
2018-08-11T01:28:16.720Z,17.03
2018-08-11T01:29:22.551Z,17.28
2018-08-11T01:30:28.716Z,17.16
2018-08-11T01:31:34.801Z,17.12
2018-08-11T01:32:40.797Z,17.09
2018-08-11T01:33:47.023Z,17.12
2018-08-11T01:34:53.335Z,17.36
2018-08-11T01:35:59.389Z,17.50
2018-08-11T01:37:05.657Z,17.44
2018-08-11T01:38:12.021Z,17.08
2018-08-11T01:39:18.613Z,16.87
2018-08-11T01:40:24.581Z,16.91
2018-08-11T01:41:30.322Z,16.87
2018-08-11T01:42:36.076Z,16.94
2018-08-11T01:43:42.331Z,17.07
2018-08-11T01:44:48.614Z,17.16
2018-08-11T01:45:54.524Z,17.20
2018-08-11T01:47:00.932Z,17.19
2018-08-11T01:48:06.960Z,17.36
2018-08-11T01:49:13.236Z,17.29
2018-08-11T01:50:19.260Z,17.31
2018-08-11T01:51:25.153Z,17.18
2018-08-11T01:52:31.506Z,17.15
2018-08-11T01:53:37.380Z,17.24
2018-08-11T01:54:43.686Z,17.26
2018-08-11T01:55:49.993Z,17.21
2018-08-11T01:56:56.309Z,17.20
2018-08-11T01:58:01.962Z,17.17
2018-08-11T01:59:07.610Z,17.17
2018-08-11T02:00:13.463Z,17.04
2018-08-11T02:01:19.468Z,16.92
2018-08-11T02:02:25.716Z,16.91
2018-08-11T02:03:32.063Z,16.85
2018-08-11T02:04:38.356Z,16.89
2018-08-11T02:05:44.355Z,16.86
2018-08-11T02:06:51.617Z,16.66
2018-08-11T02:08:00.229Z,16.49
2018-08-11T02:09:07.403Z,16.60
2018-08-11T02:10:14.000Z,16.64
2018-08-11T02:11:22.161Z,16.72
2018-08-11T02:12:29.771Z,16.53
2018-08-11T02:13:36.673Z,16.47
2018-08-11T02:14:46.411Z,16.63
2018-08-11T02:15:54.915Z,16.61
2018-08-11T02:17:02.400Z,16.60
2018-08-11T02:18:09.646Z,16.75
2018-08-11T02:19:16.930Z,16.98
2018-08-11T02:20:29.563Z,17.27
2018-08-11T02:21:35.754Z,17.11
2018-08-11T02:22:41.464Z,17.01
2018-08-11T02:23:48.009Z,17.02
2018-08-11T02:24:54.325Z,17.00
2018-08-11T02:26:00.581Z,17.02
2018-08-11T02:27:06.196Z,17.10
2018-08-11T02:28:12.620Z,16.99
2018-08-11T02:29:18.210Z,17.05
2018-08-11T02:30:24.966Z,17.10
2018-08-11T02:31:31.251Z,17.03
2018-08-11T02:32:37.564Z,16.89
2018-08-11T02:33:43.549Z,16.77
2018-08-11T02:34:49.922Z,16.53
2018-08-11T02:35:56.190Z,16.57
2018-08-11T02:37:02.113Z,16.66
2018-08-11T02:38:07.820Z,16.72
2018-08-11T02:39:14.216Z,16.60
2018-08-11T02:40:20.160Z,16.66
2018-08-11T02:41:26.389Z,16.64
2018-08-11T02:42:32.340Z,16.54
2018-08-11T02:43:38.740Z,16.49
2018-08-11T02:44:44.669Z,16.64
2018-08-11T02:45:51.030Z,16.65
2018-08-11T02:46:57.405Z,16.61
2018-08-11T02:48:03.320Z,16.68
2018-08-11T02:49:09.052Z,16.71
2018-08-11T02:50:14.756Z,16.54
2018-08-11T02:51:21.104Z,16.49
2018-08-11T02:52:27.469Z,16.39
2018-08-11T02:53:33.813Z,16.42
2018-08-11T02:54:40.106Z,16.42
2018-08-11T02:55:46.560Z,16.40
2018-08-11T02:56:52.837Z,16.31
2018-08-11T02:57:58.439Z,16.21
2018-08-11T02:59:04.556Z,16.15
2018-08-11T03:00:10.141Z,16.23
2018-08-11T03:01:16.488Z,16.24
2018-08-11T03:02:22.136Z,16.26
2018-08-11T03:03:28.613Z,16.26
2018-08-11T03:04:34.852Z,16.30
2018-08-11T03:05:41.199Z,16.20
2018-08-11T03:06:47.844Z,16.24
2018-08-11T03:07:54.092Z,16.22
2018-08-11T03:09:00.440Z,16.28
2018-08-11T03:10:06.421Z,16.25
2018-08-11T03:11:12.737Z,16.28
2018-08-11T03:12:19.293Z,16.27
2018-08-11T03:13:25.550Z,16.33
2018-08-11T03:14:32.607Z,16.28
2018-08-11T03:15:38.743Z,16.20
2018-08-11T03:16:44.997Z,16.03
2018-08-11T03:17:51.112Z,16.06
2018-08-11T03:18:57.456Z,16.14
2018-08-11T03:20:03.574Z,16.15
2018-08-11T03:21:09.616Z,16.15
2018-08-11T03:22:15.981Z,16.32
2018-08-11T03:23:22.413Z,16.40
2018-08-11T03:24:28.824Z,16.49
2018-08-11T03:25:35.501Z,16.47
2018-08-11T03:26:41.813Z,16.44
2018-08-11T03:27:47.884Z,16.42
2018-08-11T03:28:53.858Z,16.55
2018-08-11T03:29:59.794Z,16.78
2018-08-11T03:31:05.688Z,16.76
2018-08-11T03:32:12.071Z,16.90
2018-08-11T03:33:18.348Z,16.79
2018-08-11T03:34:24.704Z,17.03
2018-08-11T03:35:31.575Z,17.10
2018-08-11T03:36:37.833Z,16.81
2018-08-11T03:37:44.112Z,16.81
2018-08-11T03:38:50.133Z,16.94
2018-08-11T03:39:56.507Z,16.97
2018-08-11T03:41:02.920Z,16.94
2018-08-11T03:42:09.365Z,16.95
2018-08-11T03:43:15.688Z,16.93
2018-08-11T03:44:22.524Z,16.86
2018-08-11T03:45:28.799Z,16.86
2018-08-11T03:46:34.925Z,17.01
2018-08-11T03:47:41.326Z,17.21
2018-08-11T03:48:48.417Z,17.41
2018-08-11T03:49:54.852Z,17.53
2018-08-11T03:51:01.345Z,17.47
2018-08-11T03:52:07.473Z,17.38
2018-08-11T03:53:13.821Z,17.24
2018-08-11T03:54:20.158Z,17.29
2018-08-11T03:55:26.741Z,17.27
2018-08-11T03:56:33.156Z,17.20
2018-08-11T03:57:39.476Z,17.43
2018-08-11T03:58:45.779Z,17.52
2018-08-11T03:59:52.120Z,17.45
2018-08-11T04:00:58.399Z,17.43
2018-08-11T04:02:04.565Z,17.42
2018-08-11T04:03:10.944Z,17.34
2018-08-11T04:04:17.277Z,17.13
2018-08-11T04:05:23.213Z,17.25
2018-08-11T04:06:29.523Z,17.32
2018-08-11T04:07:36.102Z,17.45
2018-08-11T04:08:42.409Z,17.34
2018-08-11T04:09:48.718Z,17.47
2018-08-11T04:10:55.117Z,17.58
2018-08-11T04:12:01.457Z,17.37
2018-08-11T04:13:07.896Z,17.27
2018-08-11T04:14:14.391Z,17.11
2018-08-11T04:15:20.595Z,16.98
2018-08-11T04:16:26.709Z,16.98
2018-08-11T04:17:32.988Z,16.99
2018-08-11T04:18:39.623Z,16.97
2018-08-11T04:19:45.943Z,16.87
2018-08-11T04:20:52.689Z,16.89
2018-08-11T04:21:58.924Z,16.84
2018-08-11T04:23:05.177Z,16.86
2018-08-11T04:24:11.472Z,16.87
2018-08-11T04:25:17.822Z,16.91
2018-08-11T04:26:24.096Z,16.89
2018-08-11T04:27:30.060Z,16.95
2018-08-11T04:28:36.405Z,16.93
2018-08-11T04:29:42.740Z,16.91
2018-08-11T04:30:49.032Z,16.89
2018-08-11T04:31:55.239Z,16.89
2018-08-11T04:33:01.581Z,16.84
2018-08-11T04:34:06.860Z,16.87
2018-08-11T04:35:13.178Z,16.83
2018-08-11T04:36:19.572Z,16.70
2018-08-11T04:37:25.654Z,16.74
2018-08-11T04:38:31.943Z,16.68
2018-08-11T04:39:38.251Z,16.65
2018-08-11T04:40:44.796Z,16.78
2018-08-11T04:41:50.989Z,16.84
2018-08-11T04:42:56.914Z,16.86
2018-08-11T04:44:02.758Z,16.83
2018-08-11T04:45:09.188Z,16.79
2018-08-11T04:46:15.486Z,16.84
2018-08-11T04:47:21.516Z,16.85
2018-08-11T04:48:27.212Z,16.87
2018-08-11T04:49:33.610Z,16.90
2018-08-11T04:50:39.891Z,16.90
2018-08-11T04:51:46.310Z,16.97
2018-08-11T04:52:52.648Z,17.05
2018-08-11T04:53:58.932Z,17.10
2018-08-11T04:55:04.946Z,17.16
2018-08-11T04:56:10.968Z,17.14
2018-08-11T04:57:17.353Z,17.23
2018-08-11T04:58:23.808Z,17.30
2018-08-11T04:59:30.375Z,17.33
2018-08-11T05:00:36.420Z,17.34
2018-08-11T05:01:42.796Z,17.59
2018-08-11T05:02:49.009Z,17.74
2018-08-11T05:03:55.357Z,17.88
2018-08-11T05:05:01.767Z,17.78
2018-08-11T05:06:08.031Z,17.75
2018-08-11T05:07:14.554Z,17.88
2018-08-11T05:08:21.367Z,17.94
2018-08-11T05:09:27.710Z,17.98
2018-08-11T05:10:34.048Z,18.02
2018-08-11T05:11:40.926Z,18.07
2018-08-11T05:12:47.160Z,18.27
2018-08-11T05:13:53.464Z,18.45
2018-08-11T05:14:59.735Z,18.68
2018-08-11T05:16:06.114Z,18.68
2018-08-11T05:17:12.735Z,18.56
2018-08-11T05:18:19.301Z,18.59
2018-08-11T05:19:25.592Z,18.77
2018-08-11T05:20:33.135Z,18.66
2018-08-11T05:21:39.384Z,18.78
2018-08-11T05:22:49.933Z,18.78
2018-08-11T05:23:58.207Z,18.70
2018-08-11T05:25:05.253Z,18.79
2018-08-11T05:26:12.428Z,18.83
2018-08-11T05:27:18.782Z,18.98
2018-08-11T05:28:26.120Z,18.79
2018-08-11T05:29:33.101Z,18.69
2018-08-11T05:30:39.401Z,18.59
2018-08-11T05:31:46.059Z,18.51
2018-08-11T05:32:53.291Z,18.53
2018-08-11T05:34:00.584Z,18.55
2018-08-11T05:35:06.473Z,18.67
2018-08-11T05:36:12.924Z,18.54
2018-08-11T05:37:19.769Z,18.48
2018-08-11T05:38:26.105Z,18.41
2018-08-11T05:39:32.461Z,18.36
2018-08-11T05:40:38.816Z,18.36
2018-08-11T05:41:45.148Z,18.38
2018-08-11T05:42:51.382Z,18.44
2018-08-11T05:43:57.701Z,18.46
2018-08-11T05:45:03.655Z,18.44
2018-08-11T05:46:09.615Z,18.48
2018-08-11T05:47:15.937Z,18.88
2018-08-11T05:48:22.233Z,19.00
2018-08-11T05:49:28.550Z,19.01
2018-08-11T05:50:34.899Z,19.10
2018-08-11T05:51:41.175Z,19.19
2018-08-11T05:52:47.524Z,19.19
2018-08-11T05:53:53.803Z,19.29
2018-08-11T05:55:00.106Z,19.18
2018-08-11T05:56:06.117Z,19.09
2018-08-11T05:57:12.817Z,19.23
2018-08-11T05:58:19.088Z,19.22
2018-08-11T05:59:25.484Z,19.28
2018-08-11T06:00:31.172Z,19.42
2018-08-11T06:01:37.470Z,19.40
2018-08-11T06:02:43.577Z,19.45
2018-08-11T06:03:49.924Z,19.65
2018-08-11T06:04:56.436Z,19.54
2018-08-11T06:06:03.878Z,19.51
2018-08-11T06:07:10.671Z,19.63
2018-08-11T06:08:16.975Z,19.64
2018-08-11T06:09:22.934Z,19.82
2018-08-11T06:10:29.027Z,19.99
2018-08-11T06:11:35.508Z,19.96
2018-08-11T06:12:41.822Z,20.08
2018-08-11T06:13:48.134Z,20.14
2018-08-11T06:14:54.109Z,20.13
2018-08-11T06:16:00.161Z,20.21
2018-08-11T06:17:05.790Z,20.28
2018-08-11T06:18:11.824Z,20.32
2018-08-11T06:19:18.462Z,20.37
2018-08-11T06:20:24.424Z,20.35
2018-08-11T06:21:30.475Z,20.46
2018-08-11T06:22:36.844Z,20.41
2018-08-11T06:23:42.495Z,20.44
2018-08-11T06:24:49.246Z,20.48
2018-08-11T06:25:55.537Z,20.55
2018-08-11T06:27:01.937Z,20.38
2018-08-11T06:28:08.247Z,20.48
2018-08-11T06:29:14.240Z,20.49
2018-08-11T06:30:20.696Z,20.55
2018-08-11T06:31:26.704Z,20.46
2018-08-11T06:32:33.078Z,20.47
2018-08-11T06:33:39.389Z,20.48
2018-08-11T06:34:45.709Z,20.43
2018-08-11T06:35:52.036Z,20.57
2018-08-11T06:36:58.361Z,20.78
2018-08-11T06:38:04.309Z,20.78
2018-08-11T06:39:09.417Z,20.91
2018-08-11T06:40:15.863Z,20.80
2018-08-11T06:41:21.864Z,20.69
2018-08-11T06:42:28.161Z,20.87
2018-08-11T06:43:34.603Z,20.90
2018-08-11T06:44:40.873Z,20.70
2018-08-11T06:45:46.868Z,20.68
2018-08-11T06:46:53.616Z,20.61
2018-08-11T06:48:00.209Z,20.87
2018-08-11T06:49:06.448Z,20.94
2018-08-11T06:50:12.570Z,21.11
2018-08-11T06:51:18.887Z,20.86
2018-08-11T06:52:25.128Z,21.06
2018-08-11T06:53:31.507Z,21.06
2018-08-11T06:54:37.464Z,21.14
2018-08-11T06:55:43.696Z,21.19
2018-08-11T06:56:50.033Z,21.16
2018-08-11T06:57:55.976Z,21.25
2018-08-11T06:59:02.315Z,21.27
2018-08-11T07:00:08.318Z,21.32
2018-08-11T07:01:14.787Z,21.33
2018-08-11T07:02:21.065Z,21.32
2018-08-11T07:03:27.362Z,21.40
2018-08-11T07:04:34.389Z,21.33
2018-08-11T07:05:40.748Z,21.39
2018-08-11T07:06:47.097Z,21.40
2018-08-11T07:07:53.529Z,21.40
2018-08-11T07:08:59.824Z,21.46
2018-08-11T07:10:05.875Z,21.45
2018-08-11T07:11:12.197Z,21.46
2018-08-11T07:12:17.776Z,21.47
2018-08-11T07:13:24.074Z,21.48
2018-08-11T07:14:30.426Z,21.52
2018-08-11T07:15:37.414Z,21.49
2018-08-11T07:16:43.752Z,21.46
2018-08-11T07:17:50.065Z,21.38
2018-08-11T07:18:56.347Z,21.50
2018-08-11T07:20:02.662Z,21.53
2018-08-11T07:21:08.972Z,21.68
2018-08-11T07:22:15.308Z,21.64
2018-08-11T07:23:21.732Z,21.69
2018-08-11T07:24:28.014Z,21.69
2018-08-11T07:25:34.324Z,21.63
2018-08-11T07:26:40.667Z,21.69
2018-08-11T07:27:46.718Z,21.73
2018-08-11T07:28:52.937Z,21.74
2018-08-11T07:29:59.160Z,21.69
2018-08-11T07:31:05.476Z,21.77
2018-08-11T07:32:11.633Z,21.67
2018-08-11T07:33:17.923Z,21.80
2018-08-11T07:34:23.874Z,21.78
2018-08-11T07:35:30.229Z,21.76
2018-08-11T07:36:36.156Z,21.66
2018-08-11T07:37:42.605Z,21.65
2018-08-11T07:38:49.187Z,21.77
2018-08-11T07:39:55.647Z,21.70
2018-08-11T07:41:02.329Z,21.74
2018-08-11T07:42:08.740Z,21.88
2018-08-11T07:43:15.116Z,21.83
2018-08-11T07:44:21.782Z,22.01
2018-08-11T07:45:27.701Z,21.94
2018-08-11T07:46:34.079Z,21.94
2018-08-11T07:47:40.452Z,21.93
2018-08-11T07:48:46.979Z,21.83
2018-08-11T07:49:53.285Z,21.90
2018-08-11T07:50:59.552Z,21.92
2018-08-11T07:52:05.488Z,21.97
2018-08-11T07:53:11.924Z,21.85
2018-08-11T07:54:19.051Z,21.91
2018-08-11T07:55:25.376Z,21.98
2018-08-11T07:56:31.717Z,21.92
2018-08-11T07:57:37.993Z,21.95
2018-08-11T07:58:43.977Z,22.02
2018-08-11T07:59:50.208Z,22.00
2018-08-11T08:00:56.524Z,21.80
2018-08-11T08:02:02.684Z,22.01
2018-08-11T08:03:09.055Z,22.10
2018-08-11T08:04:14.991Z,22.18
2018-08-11T08:05:21.245Z,22.30
2018-08-11T08:06:27.208Z,22.34
2018-08-11T08:07:33.621Z,22.52
2018-08-11T08:08:40.617Z,22.50
2018-08-11T08:09:46.941Z,22.51
2018-08-11T08:10:53.263Z,22.46
2018-08-11T08:11:59.667Z,22.41
2018-08-11T08:13:06.004Z,22.55
2018-08-11T08:14:12.274Z,22.53
2018-08-11T08:15:18.593Z,22.39
2018-08-11T08:16:24.685Z,22.31
2018-08-11T08:17:30.669Z,22.12
2018-08-11T08:18:37.000Z,22.08
2018-08-11T08:19:43.300Z,22.08
2018-08-11T08:20:49.855Z,22.07
2018-08-11T08:21:55.916Z,22.04
2018-08-11T08:23:02.365Z,21.92
2018-08-11T08:24:08.373Z,21.90
2018-08-11T08:25:14.795Z,21.79
2018-08-11T08:26:21.398Z,21.59
2018-08-11T08:27:28.404Z,21.60
2018-08-11T08:28:34.627Z,21.80
2018-08-11T08:29:40.941Z,21.92
2018-08-11T08:30:46.928Z,21.77
2018-08-11T08:31:53.899Z,21.80
2018-08-11T08:32:59.653Z,21.60
2018-08-11T08:34:05.420Z,21.48
2018-08-11T08:35:11.668Z,21.39
2018-08-11T08:36:17.532Z,21.46
2018-08-11T08:37:24.699Z,21.26
2018-08-11T08:38:31.075Z,21.29
2018-08-11T08:39:36.980Z,21.57
2018-08-11T08:40:43.018Z,21.37
2018-08-11T08:41:49.137Z,21.50
2018-08-11T08:42:55.797Z,21.61
2018-08-11T08:44:02.117Z,21.52
2018-08-11T08:45:07.549Z,21.70
2018-08-11T08:46:13.779Z,21.55
2018-08-11T08:47:19.921Z,21.53
2018-08-11T08:48:26.225Z,21.53
2018-08-11T08:49:32.170Z,21.82
2018-08-11T08:50:38.519Z,22.05
2018-08-11T08:51:44.517Z,22.04
2018-08-11T08:52:50.757Z,21.83
2018-08-11T08:53:57.067Z,21.89
2018-08-11T08:55:03.583Z,21.87
2018-08-11T08:56:09.974Z,21.68
2018-08-11T08:57:15.958Z,21.86
2018-08-11T08:58:22.184Z,21.83
2018-08-11T08:59:28.527Z,21.85
2018-08-11T09:00:34.800Z,21.78
2018-08-11T09:01:41.132Z,21.81
2018-08-11T09:02:47.235Z,21.60
2018-08-11T09:03:53.555Z,21.55
2018-08-11T09:04:59.894Z,21.54
2018-08-11T09:06:06.476Z,21.43
2018-08-11T09:07:12.807Z,21.50
2018-08-11T09:08:19.123Z,21.68
2018-08-11T09:09:25.413Z,21.62
2018-08-11T09:10:31.645Z,21.70
2018-08-11T09:11:37.962Z,21.81
2018-08-11T09:12:43.989Z,21.86
2018-08-11T09:13:51.384Z,21.98
2018-08-11T09:14:57.634Z,21.90
2018-08-11T09:16:03.562Z,21.82
2018-08-11T09:17:09.776Z,21.80
2018-08-11T09:18:15.801Z,21.80
2018-08-11T09:19:22.226Z,21.79
2018-08-11T09:20:28.741Z,22.05
2018-08-11T09:21:35.046Z,21.91
2018-08-11T09:22:41.404Z,22.03
2018-08-11T09:23:47.676Z,21.85
2018-08-11T09:24:54.008Z,21.89
2018-08-11T09:26:00.412Z,21.39
2018-08-11T09:27:06.784Z,21.53
2018-08-11T09:28:12.692Z,21.63
2018-08-11T09:29:18.578Z,21.82
2018-08-11T09:30:25.030Z,21.42
2018-08-11T09:31:31.336Z,21.37
2018-08-11T09:32:37.390Z,21.52
2018-08-11T09:33:43.665Z,21.74
2018-08-11T09:34:50.001Z,21.80
2018-08-11T09:35:56.287Z,21.59
2018-08-11T09:37:02.846Z,21.65
2018-08-11T09:38:08.971Z,21.64
2018-08-11T09:39:15.324Z,21.67
2018-08-11T09:40:21.670Z,21.87
2018-08-11T09:41:27.651Z,22.02
2018-08-11T09:42:33.959Z,22.09
2018-08-11T09:43:43.488Z,22.23
2018-08-11T09:44:51.085Z,21.96
2018-08-11T09:45:57.449Z,22.04
2018-08-11T09:47:03.691Z,21.91
2018-08-11T09:48:09.457Z,22.13
2018-08-11T09:49:15.727Z,21.91
2018-08-11T09:50:22.079Z,22.13
2018-08-11T09:51:28.340Z,22.48
2018-08-11T09:52:34.751Z,22.62
2018-08-11T09:53:41.115Z,22.68
2018-08-11T09:54:47.408Z,22.73
2018-08-11T09:55:53.331Z,23.07
2018-08-11T09:56:59.378Z,23.13
2018-08-11T09:58:05.905Z,23.12
2018-08-11T09:59:12.221Z,23.06
2018-08-11T10:00:18.347Z,23.04
2018-08-11T10:01:24.176Z,22.99
2018-08-11T10:02:30.423Z,23.15
2018-08-11T10:03:36.776Z,23.07
2018-08-11T10:04:43.084Z,23.15
2018-08-11T10:05:49.373Z,23.16
2018-08-11T10:06:55.316Z,23.16
2018-08-11T10:08:01.384Z,23.14
2018-08-11T10:09:07.830Z,23.10
2018-08-11T10:10:14.262Z,22.97
2018-08-11T10:11:20.524Z,22.80
2018-08-11T10:12:26.860Z,22.90
2018-08-11T10:13:33.196Z,22.93
2018-08-11T10:14:40.023Z,23.00
2018-08-11T10:15:46.518Z,22.92
2018-08-11T10:16:52.837Z,23.11
2018-08-11T10:17:59.099Z,23.23
2018-08-11T10:19:05.509Z,22.89
2018-08-11T10:20:11.944Z,22.68
2018-08-11T10:21:18.256Z,22.63
2018-08-11T10:22:24.660Z,23.01
2018-08-11T10:23:31.017Z,22.97
2018-08-11T10:24:37.316Z,23.04
2018-08-11T10:25:43.636Z,23.17
2018-08-11T10:26:49.217Z,22.98
2018-08-11T10:27:55.202Z,22.87
2018-08-11T10:29:01.535Z,22.97
2018-08-11T10:30:07.129Z,23.01
2018-08-11T10:31:13.510Z,22.96
2018-08-11T10:32:19.734Z,22.75
2018-08-11T10:33:26.180Z,22.57
2018-08-11T10:34:32.434Z,22.68
2018-08-11T10:35:38.440Z,22.48
2018-08-11T10:36:44.425Z,22.87
2018-08-11T10:37:50.705Z,22.98
2018-08-11T10:38:57.128Z,23.02
2018-08-11T10:40:03.161Z,22.86
2018-08-11T10:41:09.562Z,22.68
2018-08-11T10:42:15.880Z,22.52
2018-08-11T10:43:22.168Z,22.69
2018-08-11T10:44:28.994Z,22.63
2018-08-11T10:45:35.255Z,22.45
2018-08-11T10:46:42.356Z,22.38
2018-08-11T10:47:49.902Z,22.38
2018-08-11T10:48:56.796Z,22.47
2018-08-11T10:50:03.097Z,22.33
2018-08-11T10:51:09.516Z,22.27
2018-08-11T10:52:15.452Z,22.41
2018-08-11T10:53:22.857Z,22.36
2018-08-11T10:54:29.302Z,22.48
2018-08-11T10:55:36.183Z,22.54
2018-08-11T10:56:43.097Z,22.20
2018-08-11T10:57:49.295Z,22.15
2018-08-11T10:58:55.697Z,22.36
2018-08-11T11:00:03.118Z,22.57
2018-08-11T11:01:10.115Z,22.66
2018-08-11T11:02:16.383Z,22.97
2018-08-11T11:03:23.161Z,23.09
2018-08-11T11:04:29.544Z,23.11
2018-08-11T11:05:36.767Z,23.08
2018-08-11T11:06:43.204Z,23.06
2018-08-11T11:07:50.239Z,23.09
2018-08-11T11:08:56.323Z,22.97
2018-08-11T11:10:02.636Z,22.82
2018-08-11T11:11:09.306Z,22.68
2018-08-11T11:12:15.616Z,22.55
2018-08-11T11:13:21.899Z,22.69
2018-08-11T11:14:28.207Z,22.75
2018-08-11T11:15:34.512Z,22.88
2018-08-11T11:16:40.458Z,22.64
2018-08-11T11:17:47.108Z,22.69
2018-08-11T11:18:54.124Z,22.70
2018-08-11T11:20:00.521Z,22.64
2018-08-11T11:21:06.977Z,22.59
2018-08-11T11:22:13.400Z,22.76
2018-08-11T11:23:19.712Z,23.01
2018-08-11T11:24:26.025Z,23.14
2018-08-11T11:25:32.366Z,23.25
2018-08-11T11:26:38.965Z,22.95
2018-08-11T11:27:45.368Z,23.16
2018-08-11T11:28:51.684Z,23.39
2018-08-11T11:29:58.015Z,23.38
2018-08-11T11:31:03.975Z,23.26
2018-08-11T11:32:09.894Z,23.39
2018-08-11T11:33:16.266Z,23.60
2018-08-11T11:34:22.538Z,23.62
2018-08-11T11:35:28.474Z,23.67
2018-08-11T11:36:34.248Z,23.66
2018-08-11T11:37:40.224Z,23.64
2018-08-11T11:38:46.641Z,23.83
2018-08-11T11:39:52.953Z,23.80
2018-08-11T11:40:59.223Z,23.88
2018-08-11T11:42:06.147Z,23.94
2018-08-11T11:43:12.427Z,23.99
2018-08-11T11:44:19.467Z,24.05
2018-08-11T11:45:25.884Z,23.96
2018-08-11T11:46:33.137Z,24.27
2018-08-11T11:47:40.122Z,24.42
2018-08-11T11:48:46.452Z,24.48
2018-08-11T11:49:52.754Z,24.34
2018-08-11T11:50:58.708Z,24.19
2018-08-11T11:52:04.717Z,24.09
2018-08-11T11:53:11.061Z,23.69
2018-08-11T11:54:17.404Z,23.51
2018-08-11T11:55:23.868Z,23.53
2018-08-11T11:56:29.955Z,23.81
2018-08-11T11:57:35.866Z,23.97
2018-08-11T11:58:42.776Z,23.91
2018-08-11T11:59:48.597Z,23.87
2018-08-11T12:00:55.872Z,24.26
2018-08-11T12:02:02.841Z,24.33
2018-08-11T12:03:09.400Z,24.55
2018-08-11T12:04:15.737Z,24.40
2018-08-11T12:05:22.046Z,24.35
2018-08-11T12:06:28.342Z,24.55
2018-08-11T12:07:34.681Z,24.60
2018-08-11T12:08:40.808Z,24.56
2018-08-11T12:09:47.192Z,24.71
2018-08-11T12:10:59.327Z,24.81
2018-08-11T12:12:05.585Z,24.88
2018-08-11T12:13:11.943Z,24.98
2018-08-11T12:14:18.185Z,25.07
2018-08-11T12:15:24.703Z,24.95
2018-08-11T12:16:31.091Z,25.07
2018-08-11T12:17:37.394Z,25.03
2018-08-11T12:18:43.712Z,24.91
2018-08-11T12:19:51.100Z,24.81
2018-08-11T12:20:57.400Z,25.08
2018-08-11T12:22:03.668Z,25.13
2018-08-11T12:23:09.981Z,24.91
2018-08-11T12:24:15.991Z,24.48
2018-08-11T12:25:22.177Z,24.32
2018-08-11T12:26:27.981Z,24.37
2018-08-11T12:27:34.208Z,24.58
2018-08-11T12:28:40.695Z,24.72
2018-08-11T12:29:46.960Z,24.76
2018-08-11T12:30:53.497Z,24.89
2018-08-11T12:31:59.880Z,24.98
2018-08-11T12:33:06.347Z,24.94
2018-08-11T12:34:13.376Z,24.61
2018-08-11T12:35:19.719Z,24.76
2018-08-11T12:36:25.697Z,25.07
2018-08-11T12:37:31.952Z,25.08
2018-08-11T12:38:38.256Z,24.98
2018-08-11T12:39:45.191Z,24.94
2018-08-11T12:40:53.647Z,25.12
2018-08-11T12:41:59.940Z,25.23
2018-08-11T12:43:06.283Z,25.08
2018-08-11T12:44:12.316Z,24.84
2018-08-11T12:45:18.608Z,24.66
2018-08-11T12:46:24.900Z,24.73
2018-08-11T12:47:31.203Z,24.88
2018-08-11T12:48:38.152Z,24.77
2018-08-11T12:49:44.568Z,24.62
2018-08-11T12:50:51.004Z,24.38
2018-08-11T12:51:57.499Z,24.34
2018-08-11T12:53:03.952Z,24.20
2018-08-11T12:54:09.765Z,24.20
2018-08-11T12:55:16.140Z,24.11
2018-08-11T12:56:22.650Z,24.28
2018-08-11T12:57:29.021Z,24.38
2018-08-11T12:58:35.398Z,24.75
2018-08-11T12:59:41.806Z,24.91
2018-08-11T13:00:47.439Z,24.88
2018-08-11T13:01:55.214Z,24.72
2018-08-11T13:03:01.624Z,24.41
2018-08-11T13:04:07.920Z,24.45
2018-08-11T13:05:13.945Z,24.56
2018-08-11T13:06:20.453Z,24.51
2018-08-11T13:07:26.764Z,24.90
2018-08-11T13:08:33.105Z,24.96
2018-08-11T13:09:39.130Z,25.20
2018-08-11T13:10:45.499Z,25.11
2018-08-11T13:11:51.807Z,24.99
2018-08-11T13:12:58.147Z,24.71
2018-08-11T13:14:04.067Z,24.95
2018-08-11T13:15:10.464Z,25.20
2018-08-11T13:16:16.766Z,25.36
2018-08-11T13:17:23.060Z,25.45
2018-08-11T13:18:29.374Z,25.46
2018-08-11T13:19:35.560Z,25.81
2018-08-11T13:20:42.200Z,25.76
2018-08-11T13:21:51.428Z,25.48
2018-08-11T13:22:57.401Z,25.65
2018-08-11T13:24:03.691Z,25.32
2018-08-11T13:25:09.675Z,25.12
2018-08-11T13:26:15.746Z,25.14
2018-08-11T13:27:21.754Z,25.10
2018-08-11T13:28:27.425Z,25.09
2018-08-11T13:29:33.109Z,25.11
2018-08-11T13:30:39.565Z,25.34
2018-08-11T13:31:45.955Z,25.41
2018-08-11T13:32:51.931Z,25.66
2018-08-11T13:33:58.361Z,25.80
2018-08-11T13:35:04.413Z,25.74
2018-08-11T13:36:09.819Z,25.82
2018-08-11T13:37:16.896Z,25.75
2018-08-11T13:38:22.925Z,25.64
2018-08-11T13:39:28.628Z,25.69
2018-08-11T13:40:34.433Z,25.50
2018-08-11T13:41:40.580Z,25.57
2018-08-11T13:42:46.583Z,25.64
2018-08-11T13:43:52.509Z,25.74
2018-08-11T13:44:59.604Z,25.78
2018-08-11T13:46:06.027Z,25.50
2018-08-11T13:47:12.301Z,25.45
2018-08-11T13:48:18.604Z,25.47
2018-08-11T13:49:24.699Z,25.25
2018-08-11T13:50:30.739Z,25.09
2018-08-11T13:51:36.707Z,25.35
2018-08-11T13:52:43.105Z,25.46
2018-08-11T13:53:49.412Z,25.79
2018-08-11T13:54:55.451Z,25.72
2018-08-11T13:56:01.943Z,25.83
2018-08-11T13:57:07.611Z,25.86
2018-08-11T13:58:13.837Z,25.80
2018-08-11T13:59:19.861Z,25.63
2018-08-11T14:00:25.846Z,25.72
2018-08-11T14:01:32.005Z,25.85
2018-08-11T14:02:38.573Z,25.60
2018-08-11T14:03:44.720Z,25.51
2018-08-11T14:04:51.084Z,25.60
2018-08-11T14:05:57.569Z,25.69
2018-08-11T14:07:03.527Z,25.63
2018-08-11T14:08:09.964Z,25.65
2018-08-11T14:09:16.023Z,25.27
2018-08-11T14:10:21.963Z,25.38
2018-08-11T14:11:28.001Z,25.60
2018-08-11T14:12:34.850Z,25.74
2018-08-11T14:13:40.790Z,25.95